Time;durP1;ratioP1;P1;durP2;ratioP2;P2;SDS_P1;SDS_P2;PMS_P1;PMS_P2;Temp;Humidity;BMP_temperature;BMP_pressure;BME280_temperature;BME280_humidity;BME280_pressure;Samples;Min_cycle;Max_cycle;Signal;HPM_P1;HPM_P2
2022/10/09 00:01:09;;;;;;;3.35;1.70;;;10.90;99.90;;;;;;4170594;28;20037;-68
2022/10/09 00:03:11;;;;;;;5.03;1.70;;;11.00;99.90;;;;;;4166741;28;20037;-65
2022/10/09 00:05:12;;;;;;;3.33;2.05;;;11.00;99.90;;;;;;4153048;28;20033;-69
2022/10/09 00:07:12;;;;;;;3.58;1.80;;;11.00;99.90;;;;;;4172036;28;20438;-67
2022/10/09 00:09:13;;;;;;;3.08;1.70;;;11.00;99.90;;;;;;4162896;28;20132;-67
2022/10/09 00:11:18;;;;;;;3.03;2.00;;;11.00;99.90;;;;;;4185767;28;20790;-68
2022/10/09 00:13:18;;;;;;;4.65;2.00;;;11.00;99.90;;;;;;4185706;28;20036;-68
2022/10/09 00:15:19;;;;;;;4.15;2.00;;;11.00;99.90;;;;;;4184637;28;20052;-68
2022/10/09 00:17:20;;;;;;;4.15;2.40;;;11.00;99.90;;;;;;4184401;28;20037;-68
2022/10/09 00:19:20;;;;;;;6.90;2.50;;;11.10;99.90;;;;;;4181362;28;20040;-69
2022/10/09 00:21:27;;;;;;;4.30;2.28;;;11.00;99.90;;;;;;4181189;28;20480;-68
2022/10/09 00:23:28;;;;;;;4.55;2.13;;;11.10;99.90;;;;;;4183893;28;20029;-68
2022/10/09 00:25:28;;;;;;;3.92;2.25;;;11.10;99.90;;;;;;4180459;28;20037;-68
2022/10/09 00:27:29;;;;;;;4.05;2.00;;;11.00;99.90;;;;;;4184853;28;20459;-68
2022/10/09 00:29:30;;;;;;;3.35;1.98;;;11.00;99.90;;;;;;4183904;28;20071;-68
2022/10/09 00:31:30;;;;;;;5.22;2.03;;;11.00;99.90;;;;;;4184435;28;20037;-68
2022/10/09 00:33:32;;;;;;;3.75;2.20;;;10.90;99.90;;;;;;4185625;28;20128;-67
2022/10/09 00:35:32;;;;;;;5.13;2.55;;;10.90;99.90;;;;;;4182311;28;20029;-68
2022/10/09 00:37:33;;;;;;;3.58;2.20;;;10.90;99.90;;;;;;4146796;28;20504;-67
2022/10/09 00:39:34;;;;;;;4.28;2.13;;;10.90;99.90;;;;;;4182926;28;20552;-68
2022/10/09 00:41:34;;;;;;;4.13;2.17;;;10.90;99.90;;;;;;4182899;28;20443;-68
2022/10/09 00:43:39;;;;;;;3.70;2.10;;;10.90;99.90;;;;;;4182804;28;20453;-68
2022/10/09 00:45:50;;;;;;;4.20;2.05;;;10.90;99.90;;;;;;4185515;28;20112;-67
2022/10/09 00:47:56;;;;;;;3.92;2.00;;;10.90;99.90;;;;;;4185838;28;20037;-67
2022/10/09 00:50:05;;;;;;;3.58;1.95;;;10.90;99.90;;;;;;4181821;28;20025;-68
2022/10/09 00:52:06;;;;;;;3.08;2.03;;;10.80;99.90;;;;;;4165684;28;20049;-68
2022/10/09 00:54:12;;;;;;;3.75;1.92;;;10.80;99.90;;;;;;4165909;28;20053;-67
2022/10/09 00:56:13;;;;;;;2.65;1.85;;;10.80;99.90;;;;;;4171021;28;20526;-66
2022/10/09 00:58:14;;;;;;;2.90;1.83;;;10.80;99.90;;;;;;4181955;28;20036;-67
2022/10/09 01:00:15;;;;;;;3.13;1.70;;;10.80;99.90;;;;;;4181983;28;20114;-66
2022/10/09 01:02:15;;;;;;;3.85;2.10;;;10.80;99.90;;;;;;4184902;28;20040;-67
2022/10/09 01:04:16;;;;;;;3.78;1.77;;;10.70;99.90;;;;;;4166766;28;20473;-67
2022/10/09 01:06:25;;;;;;;3.00;1.80;;;10.70;99.90;;;;;;4182339;28;20056;-67
2022/10/09 01:08:50;;;;;;;5.10;2.05;;;10.60;99.90;;;;;;4186542;28;20037;-68
2022/10/09 01:11:01;;;;;;;6.43;1.98;;;10.60;99.90;;;;;;4166135;28;20037;-67
2022/10/09 01:13:23;;;;;;;2.85;2.10;;;10.60;99.90;;;;;;4142681;28;20456;-68
2022/10/09 01:15:51;;;;;;;4.43;2.35;;;10.50;99.90;;;;;;4165915;28;20038;-67
2022/10/09 01:18:12;;;;;;;2.97;2.00;;;10.50;99.90;;;;;;4168979;28;20459;-68
2022/10/09 01:20:30;;;;;;;4.90;2.50;;;10.50;99.90;;;;;;4167021;28;20112;-68
2022/10/09 01:23:00;;;;;;;5.50;2.80;;;10.60;99.90;;;;;;4165550;28;20030;-68
2022/10/09 01:25:09;;;;;;;4.80;2.08;;;10.50;99.90;;;;;;4170019;28;20037;-68
2022/10/09 01:27:24;;;;;;;4.53;2.50;;;10.50;99.90;;;;;;4170634;28;20514;-68
2022/10/09 01:29:31;;;;;;;3.35;2.00;;;10.50;99.90;;;;;;4167552;28;20030;-68
2022/10/09 01:31:35;;;;;;;3.33;2.00;;;10.50;99.90;;;;;;4166453;28;20140;-67
2022/10/09 01:33:37;;;;;;;3.55;1.92;;;10.50;99.90;;;;;;4168313;28;20067;-68
2022/10/09 01:35:39;;;;;;;4.55;2.45;;;10.50;99.90;;;;;;4166646;28;20033;-66
2022/10/09 01:37:42;;;;;;;7.72;2.15;;;10.40;99.90;;;;;;4168945;28;20067;-67
2022/10/09 01:39:44;;;;;;;6.00;2.55;;;10.40;99.90;;;;;;4168876;28;20030;-68
2022/10/09 01:41:46;;;;;;;;;;;10.40;99.90;;;;;;4164399;28;20488;-67
2022/10/09 01:43:47;;;;;;;3.72;2.33;;;10.40;99.90;;;;;;4168282;28;19912;-68
2022/10/09 01:45:48;;;;;;;5.93;2.45;;;10.40;99.90;;;;;;4167082;28;20056;-67
2022/10/09 01:47:48;;;;;;;4.32;2.30;;;10.40;99.90;;;;;;4170377;28;20118;-67
2022/10/09 01:49:58;;;;;;;4.03;2.45;;;10.40;99.90;;;;;;4162870;28;20079;-68
2022/10/09 01:52:32;;;;;;;4.22;2.40;;;10.30;99.90;;;;;;4152652;28;20239;-68
2022/10/09 01:54:51;;;;;;;5.30;2.28;;;10.30;99.90;;;;;;4152967;28;20061;-68
2022/10/09 01:56:54;;;;;;;4.75;2.53;;;10.30;99.90;;;;;;4165645;28;20545;-67
2022/10/09 01:59:02;;;;;;;4.38;2.20;;;10.30;99.90;;;;;;4169846;28;20037;-68
2022/10/09 02:01:09;;;;;;;5.32;2.00;;;10.30;99.90;;;;;;4166612;28;20048;-68
2022/10/09 02:03:13;;;;;;;4.55;2.03;;;10.20;99.90;;;;;;4168421;28;20407;-68
2022/10/09 02:05:20;;;;;;;3.97;1.77;;;10.20;99.90;;;;;;4171260;28;20056;-67
2022/10/09 02:07:22;;;;;;;3.40;1.95;;;10.20;99.90;;;;;;4164002;28;20037;-67
2022/10/09 02:09:24;;;;;;;4.75;2.28;;;10.20;99.90;;;;;;4168946;28;20173;-67
2022/10/09 02:11:28;;;;;;;5.78;2.53;;;10.10;99.90;;;;;;4164892;28;20037;-68
2022/10/09 02:13:31;;;;;;;3.53;1.90;;;10.20;99.90;;;;;;4168926;28;20044;-68
2022/10/09 02:15:56;;;;;;;5.25;2.28;;;10.10;99.90;;;;;;4167403;28;20128;-68
2022/10/09 02:18:07;;;;;;;6.00;2.47;;;10.10;99.90;;;;;;4167791;28;20124;-67
2022/10/09 02:20:16;;;;;;;4.65;2.58;;;10.10;99.90;;;;;;4167020;28;20029;-67
2022/10/09 02:22:18;;;;;;;7.97;2.58;;;10.10;99.90;;;;;;4148870;28;20034;-65
2022/10/09 02:24:22;;;;;;;6.22;2.33;;;10.10;99.90;;;;;;4151070;28;20108;-67
2022/10/09 02:26:23;;;;;;;3.78;2.40;;;10.10;99.90;;;;;;4152978;28;20029;-67
2022/10/09 02:28:24;;;;;;;4.38;2.25;;;10.10;99.90;;;;;;4152171;28;20389;-68
2022/10/09 02:30:34;;;;;;;4.90;2.67;;;10.10;99.90;;;;;;4151884;28;20034;-68
2022/10/09 02:32:35;;;;;;;3.20;2.30;;;10.10;99.90;;;;;;4154508;28;20042;-68
2022/10/09 02:34:35;;;;;;;5.15;2.67;;;10.10;99.90;;;;;;4151512;28;20060;-68
2022/10/09 02:36:37;;;;;;;4.80;2.42;;;10.10;99.90;;;;;;4146953;28;20048;-68
2022/10/09 02:38:38;;;;;;;3.25;2.20;;;10.10;99.90;;;;;;4154170;28;20519;-67
2022/10/09 02:40:38;;;;;;;4.93;2.33;;;10.00;99.90;;;;;;4150621;28;20042;-67
2022/10/09 02:42:39;;;;;;;2.83;1.95;;;10.00;99.90;;;;;;4149265;28;20044;-67
2022/10/09 02:44:39;;;;;;;6.50;2.47;;;10.00;99.90;;;;;;4154515;28;20034;-67
2022/10/09 02:46:40;;;;;;;5.32;2.45;;;9.90;99.90;;;;;;4151254;28;20533;-67
2022/10/09 02:48:41;;;;;;;3.80;2.58;;;9.90;99.90;;;;;;4153121;28;20049;-67
2022/10/09 02:50:41;;;;;;;4.35;2.72;;;9.90;99.90;;;;;;4154219;28;20473;-67
2022/10/09 02:52:42;;;;;;;3.60;2.55;;;9.90;99.90;;;;;;4151477;28;20123;-68
2022/10/09 02:54:42;;;;;;;5.80;2.65;;;9.90;99.90;;;;;;4151408;28;20037;-67
2022/10/09 02:56:43;;;;;;;6.15;2.78;;;9.90;99.90;;;;;;4147839;28;20409;-67
2022/10/09 02:58:43;;;;;;;4.57;2.55;;;9.90;99.90;;;;;;4150734;28;20040;-67
2022/10/09 03:00:52;;;;;;;4.22;2.60;;;9.90;99.90;;;;;;4147984;28;20042;-67
2022/10/09 03:02:52;;;;;;;5.07;2.50;;;9.90;99.90;;;;;;4151490;28;20056;-67
2022/10/09 03:04:53;;;;;;;4.30;2.47;;;9.90;99.90;;;;;;4154023;28;20026;-67
2022/10/09 03:06:53;;;;;;;4.82;2.50;;;9.90;99.90;;;;;;4153772;28;20241;-67
2022/10/09 03:08:54;;;;;;;4.00;2.50;;;9.90;99.90;;;;;;4154564;28;20035;-68
2022/10/09 03:10:55;;;;;;;4.05;2.67;;;9.80;99.90;;;;;;4153565;28;20489;-68
2022/10/09 03:12:55;;;;;;;4.00;2.30;;;9.90;99.90;;;;;;4167377;28;20030;-67
2022/10/09 03:14:56;;;;;;;4.65;2.20;;;9.80;99.90;;;;;;4171513;28;20144;-68
2022/10/09 03:16:57;;;;;;;3.08;2.00;;;9.80;99.90;;;;;;4171785;28;20040;-67
2022/10/09 03:18:57;;;;;;;5.68;1.85;;;9.80;99.90;;;;;;4185684;28;20048;-68
2022/10/09 03:20:58;;;;;;;3.55;2.30;;;9.70;99.90;;;;;;4182088;28;20045;-67
2022/10/09 03:22:58;;;;;;;3.90;2.30;;;9.70;99.90;;;;;;4188258;28;20105;-68
2022/10/09 03:24:59;;;;;;;4.82;2.70;;;9.70;99.90;;;;;;4182605;28;20056;-69
2022/10/09 03:26:59;;;;;;;4.78;2.28;;;9.70;99.90;;;;;;4184096;28;20400;-68
2022/10/09 03:29:00;;;;;;;4.32;2.78;;;9.70;99.90;;;;;;4179361;28;20033;-68
2022/10/09 03:31:00;;;;;;;5.25;2.17;;;9.60;99.90;;;;;;4179698;28;20056;-68
2022/10/09 03:33:01;;;;;;;4.43;2.50;;;9.60;99.90;;;;;;4178917;28;20041;-68
2022/10/09 03:35:02;;;;;;;4.20;2.50;;;9.60;99.90;;;;;;4182697;28;20036;-69
2022/10/09 03:37:03;;;;;;;4.47;2.60;;;9.60;99.90;;;;;;4185619;28;20670;-68
2022/10/09 03:39:04;;;;;;;3.65;2.58;;;9.60;99.90;;;;;;4179933;28;20040;-69
2022/10/09 03:41:05;;;;;;;5.32;2.67;;;9.60;99.90;;;;;;4182341;28;20029;-69
2022/10/09 03:43:05;;;;;;;3.40;2.42;;;9.50;99.90;;;;;;4178105;28;20047;-68
2022/10/09 03:45:07;;;;;;;4.70;2.83;;;9.60;99.90;;;;;;4167265;28;20530;-68
2022/10/09 03:47:07;;;;;;;6.28;2.80;;;9.50;99.90;;;;;;4156692;28;20042;-68
2022/10/09 03:49:08;;;;;;;4.22;2.70;;;9.50;99.90;;;;;;4187218;28;20036;-68
2022/10/09 03:51:08;;;;;;;4.63;2.55;;;9.50;99.90;;;;;;4175617;28;20392;-68
2022/10/09 03:53:11;;;;;;;4.38;2.65;;;9.50;99.90;;;;;;4183643;28;20069;-68
2022/10/09 03:55:11;;;;;;;3.15;2.05;;;9.40;99.90;;;;;;4184943;28;20090;-68
2022/10/09 03:57:12;;;;;;;3.75;2.40;;;9.40;99.90;;;;;;4183482;28;20028;-68
2022/10/09 03:59:13;;;;;;;3.53;2.47;;;9.30;99.90;;;;;;4148628;28;20389;-67
2022/10/09 04:01:13;;;;;;;4.38;2.55;;;9.30;99.90;;;;;;4178294;28;20029;-68
2022/10/09 04:03:14;;;;;;;2.42;2.05;;;9.20;99.90;;;;;;4180668;28;20476;-68
2022/10/09 04:05:15;;;;;;;4.68;2.28;;;9.20;99.90;;;;;;4182636;28;20060;-67
2022/10/09 04:07:15;;;;;;;2.95;2.10;;;9.20;99.90;;;;;;4184502;28;20032;-68
2022/10/09 04:09:16;;;;;;;5.15;2.90;;;9.20;99.90;;;;;;4155240;28;20030;-68
2022/10/09 04:11:16;;;;;;;6.00;2.65;;;9.20;99.90;;;;;;4161666;28;20026;-68
2022/10/09 04:13:17;;;;;;;4.97;2.67;;;9.20;99.90;;;;;;4161866;28;20042;-68
2022/10/09 04:15:17;;;;;;;4.05;2.38;;;9.20;99.90;;;;;;4166536;28;20048;-68
2022/10/09 04:17:18;;;;;;;5.03;2.90;;;9.20;99.90;;;;;;4164527;28;20674;-68
2022/10/09 04:19:18;;;;;;;8.52;3.10;;;9.20;99.90;;;;;;4154472;28;20396;-68
2022/10/09 04:21:19;;;;;;;3.83;2.80;;;9.20;99.90;;;;;;4159664;28;20040;-68
2022/10/09 04:23:23;;;;;;;6.38;3.30;;;9.20;99.90;;;;;;4165155;28;20049;-67
2022/10/09 04:25:23;;;;;;;7.57;3.40;;;9.20;99.90;;;;;;4159421;28;20563;-68
2022/10/09 04:27:24;;;;;;;6.45;3.60;;;9.20;99.90;;;;;;4168870;28;20025;-68
2022/10/09 04:29:24;;;;;;;5.53;3.40;;;9.30;99.90;;;;;;4161469;28;20041;-68
2022/10/09 04:31:25;;;;;;;6.53;3.60;;;9.30;99.90;;;;;;4163977;28;20044;-67
2022/10/09 04:33:26;;;;;;;9.45;3.65;;;9.30;99.90;;;;;;4159025;28;20044;-68
2022/10/09 04:35:27;;;;;;;9.48;3.35;;;9.30;99.90;;;;;;4164715;28;20033;-69
2022/10/09 04:37:27;;;;;;;5.80;3.33;;;9.30;99.90;;;;;;4163181;28;20048;-68
2022/10/09 04:39:28;;;;;;;6.45;3.35;;;9.30;99.90;;;;;;4151631;28;20453;-68
2022/10/09 04:41:29;;;;;;;6.63;3.58;;;9.40;99.90;;;;;;4149018;28;22544;-69
2022/10/09 04:43:30;;;;;;;6.00;3.30;;;9.40;99.90;;;;;;4151969;28;20433;-68
2022/10/09 04:45:31;;;;;;;8.65;3.60;;;9.40;99.90;;;;;;4149443;28;20121;-68
2022/10/09 04:47:33;;;;;;;5.55;3.33;;;9.50;99.90;;;;;;4148932;28;20354;-68
2022/10/09 04:49:33;;;;;;;7.10;3.38;;;9.50;99.90;;;;;;4151576;28;20053;-68
2022/10/09 04:51:34;;;;;;;7.07;3.20;;;9.50;99.90;;;;;;4147408;28;20030;-68
2022/10/09 04:53:36;;;;;;;5.13;3.42;;;9.50;99.90;;;;;;4149232;28;20030;-68
2022/10/09 04:55:43;;;;;;;6.13;3.20;;;9.50;99.90;;;;;;4148829;28;20095;-68
2022/10/09 04:57:43;;;;;;;5.38;3.55;;;9.60;99.90;;;;;;4155323;28;20029;-68
2022/10/09 04:59:44;;;;;;;8.30;4.28;;;9.50;99.90;;;;;;4152616;28;20068;-68
2022/10/09 05:01:45;;;;;;;7.55;3.33;;;9.60;99.90;;;;;;4166460;28;20037;-68
2022/10/09 05:03:45;;;;;;;7.05;3.75;;;9.60;99.90;;;;;;4166927;28;20041;-68
2022/10/09 05:05:46;;;;;;;8.20;4.00;;;9.60;99.90;;;;;;4166447;28;20495;-68
2022/10/09 05:07:47;;;;;;;6.47;3.65;;;9.60;99.90;;;;;;4147754;28;20042;-68
2022/10/09 05:09:47;;;;;;;6.43;3.75;;;9.60;99.90;;;;;;4168795;28;20069;-68
2022/10/09 05:11:48;;;;;;;7.22;3.88;;;9.60;99.90;;;;;;4165515;28;20041;-68
2022/10/09 05:13:52;;;;;;;7.43;3.63;;;9.60;99.90;;;;;;4166445;28;20033;-68
2022/10/09 05:15:52;;;;;;;7.97;3.42;;;9.60;99.90;;;;;;4167554;28;20075;-68
2022/10/09 05:17:53;;;;;;;8.48;4.05;;;9.60;99.90;;;;;;4165215;28;20034;-68
2022/10/09 05:19:53;;;;;;;7.05;4.45;;;9.60;99.90;;;;;;4167674;28;20045;-68
2022/10/09 05:21:54;;;;;;;9.80;4.35;;;9.60;99.90;;;;;;4164611;28;20171;-69
2022/10/09 05:23:55;;;;;;;7.15;4.40;;;9.60;99.90;;;;;;4149153;28;20030;-68
2022/10/09 05:25:57;;;;;;;7.80;3.90;;;9.60;99.90;;;;;;4163785;28;20033;-69
2022/10/09 05:27:59;;;;;;;8.47;4.47;;;9.70;99.90;;;;;;4162748;28;20547;-68
2022/10/09 05:29:59;;;;;;;6.85;4.07;;;9.60;99.90;;;;;;4165241;28;20042;-68
2022/10/09 05:32:00;;;;;;;8.88;3.80;;;9.60;99.90;;;;;;4166603;28;20044;-68
2022/10/09 05:34:00;;;;;;;7.60;4.35;;;9.60;99.90;;;;;;4164968;28;20029;-68
2022/10/09 05:36:04;;;;;;;7.75;4.28;;;9.60;99.90;;;;;;4165351;28;20488;-69
2022/10/09 05:38:04;;;;;;;9.90;4.43;;;9.60;99.90;;;;;;4167229;28;20029;-68
2022/10/09 05:40:05;;;;;;;6.57;3.83;;;9.60;99.90;;;;;;4163276;28;20095;-68
2022/10/09 05:42:06;;;;;;;9.50;4.68;;;9.60;99.90;;;;;;4161915;28;20034;-68
2022/10/09 05:44:07;;;;;;;7.10;4.10;;;9.60;99.90;;;;;;4162202;28;20125;-68
2022/10/09 05:46:23;;;;;;;8.68;4.38;;;9.60;99.90;;;;;;4163357;28;20099;-68
2022/10/09 05:48:23;;;;;;;7.63;4.22;;;9.60;99.90;;;;;;4148393;28;20038;-67
2022/10/09 05:50:24;;;;;;;6.43;4.07;;;9.60;99.90;;;;;;4149154;28;20119;-68
2022/10/09 05:52:24;;;;;;;9.13;4.30;;;9.60;99.90;;;;;;4149036;28;20041;-68
2022/10/09 05:54:26;;;;;;;6.88;4.43;;;9.60;99.90;;;;;;4150773;28;20030;-68
2022/10/09 05:56:33;;;;;;;7.82;3.90;;;9.60;99.90;;;;;;4146413;28;20087;-69
2022/10/09 05:58:33;;;;;;;10.63;4.57;;;9.60;99.90;;;;;;4151302;28;20049;-67
2022/10/09 06:00:34;;;;;;;7.18;4.13;;;9.60;99.90;;;;;;4147743;28;20037;-68
2022/10/09 06:02:34;;;;;;;6.00;3.95;;;9.60;99.90;;;;;;4152898;28;20046;-68
2022/10/09 06:04:35;;;;;;;7.75;3.92;;;9.60;99.90;;;;;;4152005;28;20120;-67
2022/10/09 06:06:37;;;;;;;6.57;4.13;;;9.60;99.90;;;;;;4150674;28;20037;-68
2022/10/09 06:08:38;;;;;;;7.53;4.07;;;9.70;99.90;;;;;;4146867;28;20044;-68
2022/10/09 06:10:38;;;;;;;7.80;4.00;;;9.60;99.90;;;;;;4150095;28;20095;-68
2022/10/09 06:12:39;;;;;;;6.50;3.78;;;9.60;99.90;;;;;;4149777;28;20385;-67
2022/10/09 06:14:39;;;;;;;8.15;4.13;;;9.70;99.90;;;;;;4147435;28;20066;-68
2022/10/09 06:16:42;;;;;;;6.32;3.90;;;9.60;99.90;;;;;;4165879;28;20064;-67
2022/10/09 06:18:45;;;;;;;;;;;9.60;99.90;;;;;;4147129;28;20084;-67
2022/10/09 06:20:57;;;;;;;5.72;3.60;;;9.60;99.90;;;;;;4145820;28;20413;-68
2022/10/09 06:22:57;;;;;;;8.65;4.05;;;9.60;99.90;;;;;;4157779;28;20067;-68
2022/10/09 06:24:58;;;;;;;6.78;3.65;;;9.60;99.90;;;;;;4150548;28;20042;-68
2022/10/09 06:26:58;;;;;;;6.10;3.45;;;9.60;99.90;;;;;;4165208;28;20037;-68
2022/10/09 06:29:00;;;;;;;7.72;3.53;;;9.60;99.90;;;;;;4148592;28;20065;-67
2022/10/09 06:31:10;;;;;;;6.97;3.80;;;9.60;99.90;;;;;;4167230;28;20047;-68
2022/10/09 06:33:11;;;;;;;10.30;4.00;;;9.70;99.90;;;;;;4153527;28;20456;-65
2022/10/09 06:35:11;;;;;;;8.60;4.47;;;9.70;99.90;;;;;;4164466;28;20030;-68
2022/10/09 06:37:12;;;;;;;6.47;3.80;;;9.70;99.90;;;;;;4164556;28;20052;-67
2022/10/09 06:39:13;;;;;;;5.50;3.50;;;9.70;99.90;;;;;;4150371;28;20033;-68
2022/10/09 06:41:18;;;;;;;5.40;3.38;;;9.70;99.90;;;;;;4161067;28;20057;-69
2022/10/09 06:43:19;;;;;;;7.90;3.75;;;9.70;99.90;;;;;;4168088;28;20057;-67
2022/10/09 06:45:20;;;;;;;5.47;3.70;;;9.80;99.90;;;;;;4168552;28;20047;-67
2022/10/09 06:47:20;;;;;;;6.25;3.60;;;9.80;99.90;;;;;;4167913;28;20068;-68
2022/10/09 06:49:21;;;;;;;8.70;3.90;;;9.80;99.90;;;;;;4166233;28;20057;-69
2022/10/09 06:51:22;;;;;;;7.40;3.83;;;9.90;99.90;;;;;;4173593;28;20040;-69
2022/10/09 06:53:23;;;;;;;9.65;4.68;;;9.90;99.90;;;;;;4171563;28;20036;-69
2022/10/09 06:55:23;;;;;;;8.85;4.05;;;9.80;99.90;;;;;;4169910;28;20045;-69
2022/10/09 06:57:24;;;;;;;8.95;4.20;;;9.90;99.90;;;;;;4166996;28;20045;-69
2022/10/09 06:59:24;;;;;;;7.63;3.95;;;9.90;99.90;;;;;;4166256;28;20038;-70
2022/10/09 07:01:29;;;;;;;9.15;4.07;;;9.90;99.90;;;;;;4153331;28;20124;-69
2022/10/09 07:03:30;;;;;;;6.32;4.18;;;10.00;99.90;;;;;;4163708;28;20033;-70
2022/10/09 07:05:30;;;;;;;7.90;4.30;;;10.00;99.90;;;;;;4151963;28;20032;-70
2022/10/09 07:07:31;;;;;;;7.90;4.13;;;9.90;99.90;;;;;;4172506;28;20049;-69
2022/10/09 07:09:31;;;;;;;7.53;4.22;;;10.00;99.90;;;;;;4169141;28;20540;-69
2022/10/09 07:11:35;;;;;;;6.57;3.83;;;10.00;99.90;;;;;;4136823;28;20037;-69
2022/10/09 07:13:36;;;;;;;7.38;4.45;;;10.00;99.90;;;;;;4153087;28;20116;-69
2022/10/09 07:15:44;;;;;;;7.22;4.22;;;10.10;99.90;;;;;;4163685;28;20485;-69
2022/10/09 07:17:45;;;;;;;10.07;4.63;;;10.10;99.90;;;;;;4165750;28;20091;-68
2022/10/09 07:19:47;;;;;;;8.38;4.35;;;10.00;99.90;;;;;;4171333;28;20041;-68
2022/10/09 07:21:48;;;;;;;8.40;4.22;;;10.10;99.90;;;;;;4175470;28;20037;-68
2022/10/09 07:23:49;;;;;;;8.55;4.28;;;10.10;99.90;;;;;;4166233;28;20056;-68
2022/10/09 07:25:50;;;;;;;8.93;4.75;;;10.20;99.90;;;;;;4172285;28;20041;-69
2022/10/09 07:27:50;;;;;;;10.48;5.15;;;10.20;99.90;;;;;;4168641;28;20120;-68
2022/10/09 07:29:51;;;;;;;8.27;4.10;;;10.30;99.90;;;;;;4172112;28;20392;-69
2022/10/09 07:31:52;;;;;;;10.00;4.93;;;10.30;99.90;;;;;;4177073;28;20037;-68
2022/10/09 07:33:54;;;;;;;7.95;3.90;;;10.40;99.90;;;;;;4168148;28;20034;-69
2022/10/09 07:35:56;;;;;;;6.78;3.67;;;10.50;99.90;;;;;;4172457;28;20052;-68
2022/10/09 07:37:56;;;;;;;9.30;4.45;;;10.60;99.90;;;;;;4169547;28;20397;-69
2022/10/09 07:39:57;;;;;;;8.27;4.50;;;10.80;99.90;;;;;;4168315;28;20049;-70
2022/10/09 07:41:57;;;;;;;8.05;4.38;;;11.00;99.90;;;;;;4166454;28;20384;-70
2022/10/09 07:43:58;;;;;;;8.57;4.38;;;11.30;99.90;;;;;;4169025;28;20365;-69
2022/10/09 07:46:03;;;;;;;6.60;3.67;;;11.50;99.90;;;;;;4167759;28;20489;-69
2022/10/09 07:48:04;;;;;;;7.00;3.60;;;11.80;99.90;;;;;;4161762;28;20442;-70
2022/10/09 07:50:05;;;;;;;6.40;3.55;;;12.10;99.90;;;;;;4165324;28;20041;-71
2022/10/09 07:52:05;;;;;;;7.15;3.33;;;12.40;99.90;;;;;;4162384;28;20425;-69
2022/10/09 07:54:06;;;;;;;7.45;3.80;;;12.80;99.90;;;;;;4161455;28;20099;-69
2022/10/09 07:56:12;;;;;;;5.32;3.42;;;13.10;99.90;;;;;;4152588;28;20029;-71
2022/10/09 07:58:16;;;;;;;5.90;3.65;;;13.50;99.90;;;;;;4155508;28;20500;-70
2022/10/09 08:00:17;;;;;;;6.82;3.55;;;13.90;99.90;;;;;;4154409;28;20091;-71
2022/10/09 08:02:18;;;;;;;6.57;3.33;;;14.10;99.90;;;;;;4152334;28;20105;-71
2022/10/09 08:04:18;;;;;;;5.75;3.10;;;14.30;99.90;;;;;;4161054;28;20026;-71
2022/10/09 08:06:19;;;;;;;7.55;3.50;;;14.60;99.90;;;;;;4162840;28;20041;-70
2022/10/09 08:08:20;;;;;;;7.00;3.25;;;14.90;99.90;;;;;;4171924;28;20124;-70
2022/10/09 08:10:20;;;;;;;6.18;2.80;;;15.10;99.90;;;;;;4164311;28;20056;-71
2022/10/09 08:12:21;;;;;;;5.82;3.15;;;15.30;99.90;;;;;;4152525;28;20499;-71
2022/10/09 08:14:22;;;;;;;6.93;2.70;;;15.50;99.90;;;;;;4171880;28;20116;-71
2022/10/09 08:16:24;;;;;;;5.65;3.00;;;15.80;99.90;;;;;;4168390;28;20033;-71
2022/10/09 08:18:24;;;;;;;6.82;3.00;;;16.00;99.90;;;;;;4169871;28;20441;-71
2022/10/09 08:20:25;;;;;;;7.45;3.08;;;16.10;99.90;;;;;;4170068;28;20057;-71
2022/10/09 08:22:26;;;;;;;6.60;2.88;;;16.20;99.90;;;;;;4169737;28;20037;-70
2022/10/09 08:24:26;;;;;;;8.10;3.15;;;16.30;99.90;;;;;;4175058;28;20377;-71
2022/10/09 08:26:28;;;;;;;6.97;2.50;;;16.40;99.90;;;;;;4171880;28;20029;-71
2022/10/09 08:28:30;;;;;;;3.90;2.28;;;16.50;99.90;;;;;;4174584;28;20436;-71
2022/10/09 08:30:30;;;;;;;5.63;2.80;;;16.60;99.90;;;;;;4184063;28;20037;-71
2022/10/09 08:32:32;;;;;;;3.00;1.85;;;16.70;99.90;;;;;;4180853;28;20060;-71
2022/10/09 08:34:32;;;;;;;5.53;2.53;;;16.70;99.90;;;;;;4166261;28;20075;-71
2022/10/09 08:36:33;;;;;;;4.30;2.00;;;16.60;99.90;;;;;;4183570;28;20430;-71
2022/10/09 08:38:35;;;;;;;6.43;2.10;;;16.70;99.90;;;;;;4188718;28;20036;-71
2022/10/09 08:40:58;;;;;;;5.50;2.47;;;16.80;99.90;;;;;;4183220;28;20483;-70
2022/10/09 08:43:05;;;;;;;5.80;2.35;;;16.70;99.90;;;;;;4156134;28;20088;-71
2022/10/09 08:45:15;;;;;;;4.53;2.20;;;16.80;99.90;;;;;;4154188;28;20044;-70
2022/10/09 08:47:29;;;;;;;4.43;2.00;;;16.80;99.90;;;;;;4151959;28;20378;-72
2022/10/09 08:50:04;;;;;;;5.95;2.22;;;16.70;99.90;;;;;;4154895;28;20032;-71
2022/10/09 08:52:38;;;;;;;7.10;3.17;;;16.60;99.90;;;;;;4150734;28;20034;-71
2022/10/09 08:54:39;;;;;;;4.20;2.20;;;16.50;99.90;;;;;;4117617;28;20115;-72
2022/10/09 08:56:40;;;;;;;4.97;1.95;;;16.60;99.90;;;;;;4152388;28;20038;-72
2022/10/09 08:58:43;;;;;;;3.55;1.88;;;16.50;99.90;;;;;;4151710;28;20030;-71
2022/10/09 09:00:44;;;;;;;;;;;16.50;99.90;;;;;;4152574;28;20036;-70
2022/10/09 09:03:11;;;;;;;4.70;1.88;;;16.60;99.90;;;;;;4160813;28;20288;-70
2022/10/09 09:05:45;;;;;;;9.18;2.47;;;16.60;99.90;;;;;;4153317;28;20048;-72
2022/10/09 09:08:16;;;;;;;5.63;2.00;;;16.60;99.90;;;;;;4164294;28;20041;-71
2022/10/09 09:10:54;;;;;;;6.50;2.53;;;16.60;99.90;;;;;;4171925;28;20403;-72
2022/10/09 09:13:05;;;;;;;4.68;2.00;;;16.60;99.90;;;;;;4168835;28;20411;-71
2022/10/09 09:15:15;;;;;;;5.07;1.90;;;16.60;99.90;;;;;;4165794;28;20567;-74
2022/10/09 09:17:47;;;;;;;5.03;1.98;;;16.70;99.90;;;;;;4171129;28;20041;-71
2022/10/09 09:20:28;;;;;;;5.35;2.17;;;16.70;99.90;;;;;;4165494;28;20036;-71
2022/10/09 09:22:31;;;;;;;6.18;2.00;;;16.70;99.90;;;;;;4146612;28;20044;-72
2022/10/09 09:24:45;;;;;;;8.25;2.10;;;16.70;99.90;;;;;;4169794;28;20036;-72
2022/10/09 09:27:00;;;;;;;5.05;2.00;;;16.70;99.90;;;;;;4167309;28;20033;-71
2022/10/09 09:29:03;;;;;;;6.50;2.20;;;16.70;99.90;;;;;;4168447;28;20029;-71
2022/10/09 09:31:12;;;;;;;4.78;1.70;;;16.80;99.90;;;;;;4164207;28;20045;-73
2022/10/09 09:33:35;;;;;;;3.80;1.60;;;16.80;99.90;;;;;;4167436;28;20447;-71
2022/10/09 09:35:57;;;;;;;9.75;1.58;;;16.80;99.90;;;;;;4156552;28;20025;-71
2022/10/09 09:37:57;;;;;;;4.88;1.60;;;16.80;99.90;;;;;;4171018;28;20021;-71
2022/10/09 09:39:58;;;;;;;4.93;1.30;;;16.80;99.90;;;;;;4147727;28;20057;-72
2022/10/09 09:42:19;;;;;;;3.50;1.80;;;16.90;99.90;;;;;;4151793;28;20573;-72
2022/10/09 09:44:20;;;;;;;2.75;1.42;;;16.90;99.90;;;;;;4169576;28;20044;-72
2022/10/09 09:46:26;;;;;;;3.38;1.60;;;17.00;99.90;;;;;;4166732;28;20400;-71
2022/10/09 09:48:34;;;;;;;4.35;1.70;;;17.00;99.90;;;;;;4169577;28;20127;-72
2022/10/09 09:50:39;;;;;;;4.25;1.60;;;16.90;99.90;;;;;;4166505;28;20034;-70
2022/10/09 09:52:44;;;;;;;4.65;1.77;;;16.90;99.90;;;;;;4172145;28;20507;-72
2022/10/09 09:54:48;;;;;;;6.43;1.60;;;16.90;99.90;;;;;;4172384;28;20033;-71
2022/10/09 09:56:51;;;;;;;3.28;1.60;;;17.00;99.90;;;;;;4167178;28;20033;-72
2022/10/09 09:58:52;;;;;;;3.65;1.42;;;16.90;99.10;;;;;;4168471;28;20033;-71
2022/10/09 10:00:56;;;;;;;5.90;1.67;;;17.00;99.90;;;;;;4172428;28;20033;-72
2022/10/09 10:03:12;;;;;;;6.38;1.73;;;17.10;99.90;;;;;;4160754;28;20044;-72
2022/10/09 10:05:24;;;;;;;4.15;1.45;;;17.10;99.90;;;;;;4165032;28;20048;-73
2022/10/09 10:07:33;;;;;;;5.05;1.73;;;17.10;99.90;;;;;;4163451;28;20102;-73
2022/10/09 10:09:33;;;;;;;4.03;1.70;;;17.00;98.70;;;;;;4165041;28;20041;-72
2022/10/09 10:11:34;;;;;;;7.32;1.75;;;17.00;99.10;;;;;;4167978;28;20459;-72
2022/10/09 10:13:46;;;;;;;8.88;1.90;;;16.90;99.10;;;;;;4162630;28;20028;-69
2022/10/09 10:15:50;;;;;;;3.25;1.30;;;17.00;99.60;;;;;;4165136;28;20577;-72
2022/10/09 10:17:57;;;;;;;5.65;1.90;;;17.00;99.90;;;;;;4163615;28;20121;-72
2022/10/09 10:19:59;;;;;;;4.57;1.20;;;17.00;98.70;;;;;;4164062;28;20052;-74
2022/10/09 10:22:21;;;;;;;7.38;1.80;;;17.00;99.30;;;;;;4145431;28;20052;-73
2022/10/09 10:24:30;;;;;;;4.20;1.35;;;17.00;99.10;;;;;;4163292;28;20033;-72
2022/10/09 10:26:40;;;;;;;5.80;1.40;;;17.00;99.30;;;;;;4163334;28;20392;-72
2022/10/09 10:28:48;;;;;;;7.28;1.73;;;17.10;98.90;;;;;;4164027;28;20485;-72
2022/10/09 10:30:50;;;;;;;3.20;1.30;;;17.00;99.00;;;;;;4162484;28;20033;-72
2022/10/09 10:32:56;;;;;;;4.27;1.43;;;17.10;99.90;;;;;;4163904;28;20562;-72
2022/10/09 10:35:18;;;;;;;3.85;1.75;;;17.10;99.90;;;;;;4166385;28;20358;-73
2022/10/09 10:37:33;;;;;;;6.35;1.80;;;17.10;98.80;;;;;;4163543;28;20037;-72
2022/10/09 10:39:38;;;;;;;6.53;1.65;;;17.10;99.40;;;;;;4165264;28;20118;-72
2022/10/09 10:41:49;;;;;;;4.03;1.30;;;17.10;98.10;;;;;;4163652;28;20045;-72
2022/10/09 10:43:58;;;;;;;4.22;1.55;;;17.10;97.80;;;;;;4149004;28;20037;-72
2022/10/09 10:46:22;;;;;;;4.40;1.67;;;17.10;97.70;;;;;;4151630;28;20041;-73
2022/10/09 10:48:41;;;;;;;6.95;2.20;;;17.20;97.80;;;;;;4153485;28;20037;-72
2022/10/09 10:51:04;;;;;;;7.20;1.70;;;17.20;97.40;;;;;;4165623;28;20423;-72